AMQ135 LGRP-EPWR
Flight info
| Callsign | AMQ135 |
|---|---|
| Flight time | N/A |
| Altitude | 24000 |
| Route | VANES B34 ADESO/N0462F340 UN133 RIGRO DCT EVIVI L863 EDIKA/N0456F360 L863 OKANA DCT OBAGI DCT ESIRI DCT DONIV DCT PARAK DCT ERGUZ DCT BALAP DCT REGLI L617 EPOPA |
| Aircraft | A320/M-SDE3FGHIRWY/LB1 |
Departure
| Time | N/A |
|---|---|
| Airport | Rhodes International Airport "Diagoras" (LGRP) |
Arrival
| Time | 2026-05-03 20:33 |
|---|---|
| Airport | Copernicus Wrocław Airport (EPWR) |
| Time | Latitude | Longitude | Altitude | Speed | Heading |
|---|---|---|---|---|---|
| 2026-05-03 20:15 | 50.48646 | 17.64913 | 24142 ft | 391 kts | 320° |
| 2026-05-03 20:15 | 50.50752 | 17.62223 | 23633 ft | 389 kts | 320° |
| 2026-05-03 20:15 | 50.52847 | 17.59538 | 23072 ft | 387 kts | 320° |
| 2026-05-03 20:15 | 50.54927 | 17.56870 | 22534 ft | 385 kts | 319° |
| 2026-05-03 20:16 | 50.57002 | 17.54211 | 22013 ft | 383 kts | 319° |
| 2026-05-03 20:16 | 50.59102 | 17.51519 | 21496 ft | 380 kts | 319° |
| 2026-05-03 20:16 | 50.60439 | 17.49805 | 21170 ft | 379 kts | 319° |
| 2026-05-03 20:16 | 50.62508 | 17.47145 | 20664 ft | 377 kts | 319° |
| 2026-05-03 20:17 | 50.64538 | 17.44528 | 20169 ft | 375 kts | 319° |
| 2026-05-03 20:17 | 50.66566 | 17.41908 | 19677 ft | 373 kts | 318° |
| 2026-05-03 20:17 | 50.68565 | 17.39321 | 19205 ft | 371 kts | 318° |
| 2026-05-03 20:17 | 50.70559 | 17.36739 | 18741 ft | 370 kts | 318° |
| 2026-05-03 20:18 | 50.72541 | 17.34176 | 18280 ft | 368 kts | 318° |
| 2026-05-03 20:18 | 50.74522 | 17.31612 | 17777 ft | 366 kts | 318° |
| 2026-05-03 20:18 | 50.76483 | 17.29076 | 17320 ft | 363 kts | 318° |
| 2026-05-03 20:18 | 50.78440 | 17.26543 | 16857 ft | 361 kts | 317° |
| 2026-05-03 20:19 | 50.80359 | 17.24053 | 16410 ft | 358 kts | 317° |
| 2026-05-03 20:19 | 50.82277 | 17.21556 | 15968 ft | 356 kts | 317° |
| 2026-05-03 20:19 | 50.84180 | 17.19068 | 15534 ft | 354 kts | 317° |
| 2026-05-03 20:19 | 50.86131 | 17.16518 | 15097 ft | 351 kts | 317° |
| 2026-05-03 20:20 | 50.87975 | 17.14109 | 14737 ft | 348 kts | 317° |
| 2026-05-03 20:20 | 50.89814 | 17.11710 | 14594 ft | 337 kts | 317° |
| 2026-05-03 20:20 | 50.91597 | 17.09388 | 14472 ft | 327 kts | 317° |
| 2026-05-03 20:20 | 50.93340 | 17.07106 | 14170 ft | 322 kts | 315° |
| 2026-05-03 20:21 | 50.94870 | 17.04575 | 13811 ft | 317 kts | 304° |
| 2026-05-03 20:21 | 50.96061 | 17.01683 | 13418 ft | 312 kts | 294° |
| 2026-05-03 20:21 | 50.97007 | 16.98600 | 13022 ft | 309 kts | 292° |
| 2026-05-03 20:21 | 50.97946 | 16.95528 | 12585 ft | 310 kts | 292° |
| 2026-05-03 20:22 | 50.98890 | 16.92457 | 12155 ft | 310 kts | 292° |
| 2026-05-03 20:22 | 50.99846 | 16.89345 | 11721 ft | 309 kts | 293° |
| 2026-05-03 20:22 | 51.00791 | 16.86278 | 11308 ft | 309 kts | 293° |
| 2026-05-03 20:22 | 51.01733 | 16.83218 | 10874 ft | 308 kts | 293° |
| 2026-05-03 20:23 | 51.02669 | 16.80174 | 10465 ft | 303 kts | 293° |
| 2026-05-03 20:23 | 51.03575 | 16.77230 | 10059 ft | 291 kts | 293° |
| 2026-05-03 20:23 | 51.04448 | 16.74391 | 9685 ft | 279 kts | 293° |
| 2026-05-03 20:23 | 51.05278 | 16.71682 | 9264 ft | 269 kts | 293° |
| 2026-05-03 20:24 | 51.06070 | 16.69093 | 8858 ft | 259 kts | 293° |
| 2026-05-03 20:24 | 51.06830 | 16.66590 | 8446 ft | 250 kts | 293° |
| 2026-05-03 20:24 | 51.07583 | 16.64104 | 8044 ft | 242 kts | 293° |
| 2026-05-03 20:24 | 51.08297 | 16.61732 | 7650 ft | 235 kts | 293° |
| 2026-05-03 20:25 | 51.08999 | 16.59408 | 7261 ft | 233 kts | 294° |
| 2026-05-03 20:25 | 51.09703 | 16.57079 | 6878 ft | 234 kts | 294° |
| 2026-05-03 20:25 | 51.10409 | 16.54739 | 6495 ft | 235 kts | 294° |
| 2026-05-03 20:25 | 51.11119 | 16.52381 | 6096 ft | 237 kts | 294° |
| 2026-05-03 20:26 | 51.11834 | 16.50008 | 5679 ft | 238 kts | 294° |
| 2026-05-03 20:26 | 51.12554 | 16.47624 | 5289 ft | 240 kts | 294° |
| 2026-05-03 20:26 | 51.13552 | 16.45515 | 4886 ft | 243 kts | 321° |
| 2026-05-03 20:26 | 51.15116 | 16.44503 | 4535 ft | 246 kts | 354° |
| 2026-05-03 20:27 | 51.16749 | 16.44937 | 4489 ft | 237 kts | 23° |
| 2026-05-03 20:27 | 51.18264 | 16.46085 | 4496 ft | 238 kts | 24° |
| 2026-05-03 20:27 | 51.19749 | 16.47258 | 4494 ft | 239 kts | 31° |
| 2026-05-03 20:27 | 51.20881 | 16.49154 | 4493 ft | 238 kts | 65° |
| 2026-05-03 20:28 | 51.21228 | 16.51701 | 4496 ft | 235 kts | 97° |
| 2026-05-03 20:28 | 51.20755 | 16.54143 | 4513 ft | 231 kts | 119° |
| 2026-05-03 20:28 | 51.20044 | 16.56470 | 4342 ft | 235 kts | 119° |
| 2026-05-03 20:28 | 51.19293 | 16.58931 | 3906 ft | 239 kts | 120° |
| 2026-05-03 20:29 | 51.18590 | 16.61240 | 3506 ft | 238 kts | 121° |
| 2026-05-03 20:29 | 51.17846 | 16.63701 | 3085 ft | 232 kts | 121° |
| 2026-05-03 20:29 | 51.17177 | 16.65913 | 2710 ft | 226 kts | 122° |
| 2026-05-03 20:29 | 51.16494 | 16.68170 | 2311 ft | 221 kts | 123° |
| 2026-05-03 20:30 | 51.15845 | 16.70312 | 1948 ft | 217 kts | 123° |
| 2026-05-03 20:30 | 51.15186 | 16.72482 | 1706 ft | 205 kts | 123° |
| 2026-05-03 20:30 | 51.14617 | 16.74394 | 1731 ft | 176 kts | 124° |
| 2026-05-03 20:30 | 51.14286 | 16.75518 | 1720 ft | 156 kts | 125° |
| 2026-05-03 20:31 | 51.13728 | 16.77402 | 1536 ft | 135 kts | 126° |
| 2026-05-03 20:31 | 51.13296 | 16.78792 | 1215 ft | 137 kts | 123° |
| 2026-05-03 20:31 | 51.12862 | 16.80130 | 1164 ft | 141 kts | 122° |
| 2026-05-03 20:31 | 51.12439 | 16.81572 | 1041 ft | 141 kts | 120° |
| 2026-05-03 20:32 | 51.12011 | 16.82978 | 932 ft | 142 kts | 121° |
| 2026-05-03 20:32 | 51.11567 | 16.84358 | 741 ft | 140 kts | 119° |
| 2026-05-03 20:32 | 51.11136 | 16.85779 | 579 ft | 141 kts | 118° |
| 2026-05-03 20:32 | 51.10706 | 16.87145 | 406 ft | 134 kts | 120° |
| 2026-05-03 20:33 | 51.10340 | 16.88324 | 405 ft | 93 kts | 115° |
| 2026-05-03 20:33 | 51.10210 | 16.88749 | 404 ft | 35 kts | 116° |
| 2026-05-03 20:33 | 51.10159 | 16.88876 | 403 ft | 6 kts | 130° |
| 2026-05-03 20:33 | 51.10167 | 16.88887 | 403 ft | 1 kts | 337° |
| 2026-05-03 20:34 | 51.10192 | 16.88824 | 403 ft | 17 kts | 301° |
| 2026-05-03 20:34 | 51.10255 | 16.88619 | 404 ft | 21 kts | 295° |
| 2026-05-03 20:34 | 51.10319 | 16.88407 | 406 ft | 21 kts | 296° |
| 2026-05-03 20:34 | 51.10388 | 16.88183 | 406 ft | 23 kts | 296° |
| 2026-05-03 20:35 | 51.10461 | 16.87942 | 403 ft | 26 kts | 298° |
| 2026-05-03 20:35 | 51.10544 | 16.87680 | 401 ft | 27 kts | 296° |
| 2026-05-03 20:35 | 51.10621 | 16.87427 | 402 ft | 26 kts | 297° |
| 2026-05-03 20:35 | 51.10693 | 16.87252 | 402 ft | 9 kts | 341° |
| 2026-05-03 20:36 | 51.10743 | 16.87262 | 404 ft | 8 kts | 25° |
| 2026-05-03 20:36 | 51.10792 | 16.87301 | 403 ft | 8 kts | 27° |
| 2026-05-03 20:36 | 51.10836 | 16.87336 | 402 ft | 7 kts | 23° |
| 2026-05-03 20:36 | 51.10876 | 16.87364 | 400 ft | 6 kts | 25° |
| 2026-05-03 20:37 | 51.10923 | 16.87400 | 402 ft | 15 kts | 26° |
| 2026-05-03 20:37 | 51.10919 | 16.87563 | 402 ft | 17 kts | 115° |
| 2026-05-03 20:37 | 51.10865 | 16.87743 | 401 ft | 19 kts | 116° |
| 2026-05-03 20:37 | 51.10826 | 16.87893 | 403 ft | 8 kts | 81° |
| 2026-05-03 20:38 | 51.10866 | 16.87921 | 403 ft | 5 kts | 17° |
| 2026-05-03 20:38 | 51.10888 | 16.87939 | 403 ft | 2 kts | 27° |
| 2026-05-03 20:38 | 51.10891 | 16.87941 | 403 ft | 0 kts | 27° |